createdAt,value
2019-06-26T00:00:57.308Z,9.60
2019-06-26T00:02:58.968Z,10.50
2019-06-26T00:05:00.624Z,8.83
2019-06-26T00:07:02.394Z,9.43
2019-06-26T00:09:04.834Z,9.53
2019-06-26T00:11:06.518Z,10.83
2019-06-26T00:13:08.341Z,9.77
2019-06-26T00:15:10.101Z,9.53
2019-06-26T00:17:11.845Z,9.73
2019-06-26T00:19:13.525Z,8.97
2019-06-26T00:21:15.286Z,10.37
2019-06-26T00:23:16.949Z,10.40
2019-06-26T00:25:18.624Z,10.83
2019-06-26T00:27:20.477Z,10.63
2019-06-26T00:29:22.149Z,10.93
2019-06-26T00:31:23.826Z,10.63
2019-06-26T00:33:25.494Z,11.30
2019-06-26T00:35:27.152Z,9.90
2019-06-26T00:37:28.910Z,10.27
2019-06-26T00:39:30.569Z,11.50
2019-06-26T00:41:32.561Z,11.77
2019-06-26T00:43:42.266Z,10.90
2019-06-26T00:45:37.802Z,9.50
2019-06-26T00:47:39.471Z,10.10
2019-06-26T00:49:41.141Z,10.50
2019-06-26T00:51:42.831Z,11.00
2019-06-26T00:53:44.573Z,10.27
2019-06-26T00:55:46.243Z,10.90
2019-06-26T00:57:47.901Z,10.50
2019-06-26T00:59:49.585Z,10.37
2019-06-26T01:01:51.753Z,10.13
2019-06-26T01:03:56.119Z,10.17
2019-06-26T01:05:58.133Z,9.70
2019-06-26T01:07:59.877Z,9.67
2019-06-26T01:10:01.549Z,10.03
2019-06-26T01:12:03.221Z,9.60
2019-06-26T01:14:04.880Z,9.77
2019-06-26T01:16:06.553Z,9.77
2019-06-26T01:18:08.221Z,10.40
2019-06-26T01:20:09.885Z,10.30
2019-06-26T01:22:11.568Z,11.03
2019-06-26T01:24:13.380Z,10.40
2019-06-26T01:26:15.461Z,9.63
2019-06-26T01:28:17.112Z,11.27
2019-06-26T01:30:19.173Z,11.27
2019-06-26T01:32:20.842Z,11.73
2019-06-26T01:34:22.503Z,11.93
2019-06-26T01:36:24.270Z,11.40
2019-06-26T01:38:25.934Z,11.03
2019-06-26T01:40:27.611Z,11.67
2019-06-26T01:42:29.372Z,11.60
2019-06-26T01:44:31.027Z,11.60
2019-06-26T01:46:32.698Z,11.80
2019-06-26T01:48:34.653Z,10.97
2019-06-26T01:50:36.325Z,10.60
2019-06-26T01:52:37.990Z,11.70
2019-06-26T01:54:39.921Z,11.53
2019-06-26T01:56:41.609Z,11.60
2019-06-26T01:58:43.252Z,12.80
2019-06-26T02:00:44.939Z,11.60
2019-06-26T02:02:46.605Z,12.97
2019-06-26T02:04:48.290Z,11.60
2019-06-26T02:06:50.323Z,10.60
2019-06-26T02:08:52.008Z,12.03
2019-06-26T02:10:53.767Z,12.00
2019-06-26T02:12:55.426Z,11.90
2019-06-26T02:14:57.113Z,11.60
2019-06-26T02:16:58.885Z,11.83
2019-06-26T02:19:02.511Z,11.20
2019-06-26T02:21:04.183Z,10.93
2019-06-26T02:23:05.841Z,10.50
2019-06-26T02:25:07.505Z,10.03
2019-06-26T02:27:09.178Z,11.30
2019-06-26T02:29:10.834Z,9.60
2019-06-26T02:31:12.538Z,11.87
2019-06-26T02:33:14.438Z,12.83
2019-06-26T02:35:16.088Z,13.80
2019-06-26T02:37:17.757Z,13.10
2019-06-26T02:39:19.711Z,13.10
2019-06-26T02:41:21.472Z,12.83
2019-06-26T02:43:23.135Z,11.50
2019-06-26T02:45:24.798Z,11.97
2019-06-26T02:47:26.472Z,12.60
2019-06-26T02:49:28.140Z,13.50
2019-06-26T02:51:29.894Z,12.60
2019-06-26T02:53:31.563Z,11.70
2019-06-26T02:55:33.326Z,12.50
2019-06-26T02:57:35.006Z,11.87
2019-06-26T02:59:36.665Z,11.57
2019-06-26T03:01:38.342Z,12.50
2019-06-26T03:03:40.021Z,14.23
2019-06-26T03:05:41.681Z,11.60
2019-06-26T03:07:43.685Z,12.70
2019-06-26T03:09:45.375Z,12.70
2019-06-26T03:11:47.120Z,13.47
2019-06-26T03:13:48.778Z,13.37
2019-06-26T03:15:50.926Z,12.80
2019-06-26T03:17:55.677Z,13.40
2019-06-26T03:19:56.357Z,13.50
2019-06-26T03:21:58.490Z,13.10
2019-06-26T03:24:00.453Z,12.50
2019-06-26T03:26:02.129Z,12.13
2019-06-26T03:28:03.810Z,12.90
2019-06-26T03:30:05.569Z,13.23
2019-06-26T03:32:07.254Z,13.00
2019-06-26T03:34:09.003Z,12.43
2019-06-26T03:36:11.018Z,13.93
2019-06-26T03:38:12.697Z,13.27
2019-06-26T03:40:14.358Z,13.00
2019-06-26T03:42:16.038Z,13.00
2019-06-26T03:44:17.701Z,13.30
2019-06-26T03:46:19.380Z,13.80
2019-06-26T03:48:21.147Z,13.10
2019-06-26T03:50:22.813Z,12.90
2019-06-26T03:52:24.528Z,12.50
2019-06-26T03:54:26.284Z,13.17
2019-06-26T03:56:27.947Z,12.93
2019-06-26T03:58:29.625Z,12.70
2019-06-26T04:00:38.034Z,12.77
2019-06-26T04:02:39.757Z,14.20
2019-06-26T04:04:41.461Z,13.10
2019-06-26T04:06:43.126Z,11.90
2019-06-26T04:08:44.796Z,14.00
2019-06-26T04:10:46.453Z,12.07
2019-06-26T04:12:48.221Z,12.87
2019-06-26T04:14:50.124Z,12.40
2019-06-26T04:16:51.777Z,13.00
2019-06-26T04:18:53.449Z,11.90
2019-06-26T04:20:55.114Z,12.97
2019-06-26T04:22:56.793Z,13.10
2019-06-26T04:24:58.464Z,13.30
2019-06-26T04:27:00.938Z,12.73
2019-06-26T04:29:02.616Z,12.87
2019-06-26T04:31:04.276Z,12.77
2019-06-26T04:33:05.945Z,13.73
2019-06-26T04:35:07.660Z,13.00
2019-06-26T04:37:09.389Z,11.80
2019-06-26T04:39:11.058Z,14.27
2019-06-26T04:41:12.710Z,13.63
2019-06-26T04:43:14.380Z,12.60
2019-06-26T04:45:16.050Z,13.70
2019-06-26T04:47:17.726Z,13.50
2019-06-26T04:49:19.385Z,12.50
2019-06-26T04:51:21.056Z,12.80
2019-06-26T04:53:22.722Z,13.27
2019-06-26T04:55:24.381Z,13.80
2019-06-26T04:57:26.058Z,12.87
2019-06-26T04:59:27.732Z,13.77
2019-06-26T05:01:29.384Z,11.87
2019-06-26T05:03:31.075Z,12.90
2019-06-26T05:05:39.417Z,12.90
2019-06-26T05:07:36.681Z,14.53
2019-06-26T05:09:38.333Z,13.67
2019-06-26T05:11:39.990Z,13.50
2019-06-26T05:13:41.981Z,12.60
2019-06-26T05:15:43.658Z,14.00
2019-06-26T05:17:45.329Z,13.60
2019-06-26T05:19:46.985Z,13.90
2019-06-26T05:21:48.650Z,14.00
2019-06-26T05:23:50.317Z,13.30
2019-06-26T05:25:51.982Z,14.10
2019-06-26T05:27:53.656Z,13.90
2019-06-26T05:29:55.317Z,14.00
2019-06-26T05:31:56.975Z,14.30
2019-06-26T05:33:58.645Z,14.20
2019-06-26T05:36:00.641Z,14.23
2019-06-26T05:38:02.353Z,14.93
2019-06-26T05:40:06.037Z,14.63
2019-06-26T05:42:07.797Z,13.90
2019-06-26T05:44:09.456Z,14.50
2019-06-26T05:46:11.121Z,14.20
2019-06-26T05:48:12.789Z,15.57
2019-06-26T05:50:14.458Z,15.13
2019-06-26T05:52:16.802Z,15.03
2019-06-26T05:54:18.576Z,14.77
2019-06-26T05:56:20.241Z,16.20
2019-06-26T05:58:21.916Z,14.83
2019-06-26T06:00:23.593Z,13.30
2019-06-26T06:02:25.493Z,13.80
2019-06-26T06:04:27.172Z,15.20
2019-06-26T06:06:40.995Z,15.20
2019-06-26T06:08:32.440Z,14.00
2019-06-26T06:10:34.103Z,13.13
2019-06-26T06:12:35.761Z,12.73
2019-06-26T06:14:37.435Z,13.43
2019-06-26T06:16:47.417Z,14.60
2019-06-26T06:18:42.677Z,14.10
2019-06-26T06:20:44.341Z,14.70
2019-06-26T06:22:46.330Z,13.97
2019-06-26T06:24:48.072Z,13.90
2019-06-26T06:26:49.850Z,15.00
2019-06-26T06:28:51.593Z,15.00
2019-06-26T06:30:53.262Z,14.00
2019-06-26T06:32:55.182Z,14.23
2019-06-26T06:34:57.134Z,13.77
2019-06-26T06:36:58.793Z,14.87
2019-06-26T06:39:00.479Z,14.70
2019-06-26T06:41:02.151Z,14.60
2019-06-26T06:43:04.089Z,14.43
2019-06-26T06:45:05.897Z,16.33
2019-06-26T06:47:09.054Z,13.90
2019-06-26T06:49:11.289Z,14.73
2019-06-26T06:51:12.959Z,14.40
2019-06-26T06:53:14.714Z,15.30
2019-06-26T06:55:16.389Z,13.90
2019-06-26T06:57:18.050Z,14.87
2019-06-26T06:59:19.806Z,14.73
2019-06-26T07:01:21.463Z,17.73
2019-06-26T07:03:23.129Z,15.27
2019-06-26T07:05:24.818Z,15.60
2019-06-26T07:07:26.468Z,17.13
2019-06-26T07:09:28.161Z,17.40
2019-06-26T07:11:29.919Z,17.67
2019-06-26T07:13:31.576Z,15.83
2019-06-26T07:15:33.241Z,16.33
2019-06-26T07:17:34.933Z,15.87
2019-06-26T07:19:36.596Z,16.10
2019-06-26T07:21:38.255Z,16.00
2019-06-26T07:23:40.191Z,14.67
2019-06-26T07:25:41.865Z,15.77
2019-06-26T07:27:43.537Z,15.10
2019-06-26T07:29:45.232Z,15.30
2019-06-26T07:31:46.909Z,13.73
2019-06-26T07:33:48.608Z,14.40
2019-06-26T07:35:50.274Z,15.40
2019-06-26T07:37:51.938Z,15.50
2019-06-26T07:39:58.782Z,12.70
2019-06-26T07:41:57.438Z,13.43
2019-06-26T07:43:59.109Z,14.40
2019-06-26T07:46:00.784Z,15.70
2019-06-26T07:48:02.474Z,14.57
2019-06-26T07:50:04.289Z,15.20
2019-06-26T07:52:05.950Z,14.13
2019-06-26T07:54:07.626Z,15.20
2019-06-26T07:56:09.297Z,13.47
2019-06-26T07:58:10.968Z,15.20
2019-06-26T08:00:14.087Z,15.60
2019-06-26T08:02:15.850Z,13.73
2019-06-26T08:04:17.525Z,14.73
2019-06-26T08:06:19.197Z,14.30
2019-06-26T08:08:20.926Z,15.67
2019-06-26T08:10:22.636Z,17.10
2019-06-26T08:12:24.309Z,16.43
2019-06-26T08:14:26.005Z,15.97
2019-06-26T08:16:27.674Z,15.83
2019-06-26T08:18:29.346Z,15.90
2019-06-26T08:20:31.329Z,15.20
2019-06-26T08:22:33.296Z,15.23
2019-06-26T08:24:34.969Z,15.63
2019-06-26T08:26:36.627Z,17.87
2019-06-26T08:28:38.299Z,16.20
2019-06-26T08:30:39.989Z,18.23
2019-06-26T08:32:41.653Z,16.60
2019-06-26T08:34:43.348Z,15.97
2019-06-26T08:36:45.700Z,16.10
2019-06-26T08:38:47.356Z,17.43
2019-06-26T08:40:49.038Z,17.40
2019-06-26T08:42:50.748Z,19.50
2019-06-26T08:44:53.029Z,17.17
2019-06-26T08:46:54.725Z,17.90
2019-06-26T08:48:56.581Z,17.50
2019-06-26T08:50:58.426Z,18.23
2019-06-26T08:53:00.107Z,18.63
2019-06-26T08:55:02.205Z,19.23
2019-06-26T08:57:03.869Z,18.83
2019-06-26T08:59:05.532Z,17.23
2019-06-26T09:01:07.316Z,18.83
2019-06-26T09:03:08.984Z,20.33
2019-06-26T09:05:10.676Z,18.13
2019-06-26T09:07:12.338Z,18.10
2019-06-26T09:09:14.101Z,15.50
2019-06-26T09:11:15.839Z,15.77
2019-06-26T09:13:17.569Z,18.17
2019-06-26T09:15:19.549Z,15.70
2019-06-26T09:17:21.225Z,16.40
2019-06-26T09:19:22.912Z,15.10
2019-06-26T09:21:24.715Z,12.53
2019-06-26T09:23:26.453Z,15.07
2019-06-26T09:25:28.134Z,13.70
2019-06-26T09:27:29.803Z,12.40
2019-06-26T09:29:31.473Z,13.37
2019-06-26T09:31:33.149Z,13.80
2019-06-26T09:33:34.825Z,12.90
2019-06-26T09:35:36.517Z,13.50
2019-06-26T09:37:38.203Z,13.53
2019-06-26T09:39:39.958Z,13.83
2019-06-26T09:41:41.640Z,12.80
2019-06-26T09:43:43.640Z,12.23
2019-06-26T09:45:45.397Z,12.60
2019-06-26T09:47:47.067Z,12.60
2019-06-26T09:49:48.741Z,12.10
2019-06-26T09:51:50.421Z,12.53
2019-06-26T09:53:52.401Z,11.90
2019-06-26T09:55:54.151Z,11.77
2019-06-26T09:57:55.923Z,12.27
2019-06-26T09:59:57.606Z,9.40
2019-06-26T10:01:59.378Z,10.57
2019-06-26T10:04:01.068Z,10.87
2019-06-26T10:06:02.829Z,10.30
2019-06-26T10:08:04.493Z,10.03
2019-06-26T10:10:06.185Z,9.53
2019-06-26T10:12:07.863Z,10.60
2019-06-26T10:14:09.525Z,10.63
2019-06-26T10:16:11.214Z,10.07
2019-06-26T10:18:12.887Z,8.43
2019-06-26T10:20:14.560Z,8.20
2019-06-26T10:22:16.484Z,9.33
2019-06-26T10:24:18.211Z,8.13
2019-06-26T10:26:19.894Z,8.83
2019-06-26T10:28:21.558Z,7.83
2019-06-26T10:30:23.270Z,9.90
2019-06-26T10:32:24.936Z,8.40
2019-06-26T10:34:26.725Z,8.43
2019-06-26T10:36:28.406Z,8.67
2019-06-26T10:38:30.073Z,8.37
2019-06-26T10:40:32.055Z,9.37
2019-06-26T10:42:34.065Z,9.00
2019-06-26T10:44:35.736Z,8.47
2019-06-26T10:46:37.413Z,8.40
2019-06-26T10:48:39.102Z,9.30
2019-06-26T10:51:00.441Z,10.30
2019-06-26T10:53:02.400Z,11.53
2019-06-26T10:55:04.151Z,10.03
2019-06-26T10:57:05.912Z,11.03
2019-06-26T10:59:07.581Z,10.90
2019-06-26T11:01:09.322Z,12.33
2019-06-26T11:03:11.009Z,10.13
2019-06-26T11:05:12.758Z,11.00
2019-06-26T11:07:14.443Z,10.37
2019-06-26T11:09:16.532Z,9.93
2019-06-26T11:11:18.213Z,10.03
2019-06-26T11:13:19.896Z,11.10
2019-06-26T11:15:21.560Z,10.57
2019-06-26T11:17:23.236Z,10.57
2019-06-26T11:19:24.919Z,9.83
2019-06-26T11:21:26.597Z,10.80
2019-06-26T11:23:28.567Z,9.77
2019-06-26T11:25:30.482Z,9.00
2019-06-26T11:27:32.517Z,9.20
2019-06-26T11:29:34.191Z,9.37
2019-06-26T11:31:35.853Z,9.63
2019-06-26T11:33:37.566Z,9.97
2019-06-26T11:35:39.658Z,8.63
2019-06-26T11:37:41.424Z,9.47
2019-06-26T11:39:43.097Z,8.53
2019-06-26T11:41:44.781Z,7.60
2019-06-26T11:43:46.494Z,7.83
2019-06-26T11:45:48.218Z,7.80
2019-06-26T11:47:49.976Z,8.90
2019-06-26T11:49:59.726Z,7.80
2019-06-26T11:51:55.337Z,8.57
2019-06-26T11:53:58.986Z,8.00
2019-06-26T11:56:00.812Z,7.80
2019-06-26T11:58:02.560Z,8.77
2019-06-26T12:00:04.895Z,10.77
2019-06-26T12:02:06.601Z,7.07
2019-06-26T12:04:08.277Z,7.70
2019-06-26T12:06:18.111Z,8.90
2019-06-26T12:08:13.555Z,8.90
2019-06-26T12:10:16.317Z,9.53
2019-06-26T12:12:18.552Z,9.60
2019-06-26T12:14:20.667Z,8.90
2019-06-26T12:16:22.341Z,8.80
2019-06-26T12:18:24.021Z,9.43
2019-06-26T12:20:25.822Z,7.67
2019-06-26T12:22:27.777Z,9.40
2019-06-26T12:24:29.450Z,8.43
2019-06-26T12:26:31.214Z,7.90
2019-06-26T12:28:33.153Z,8.80
2019-06-26T12:30:34.830Z,9.27
2019-06-26T12:32:42.443Z,9.87
2019-06-26T12:34:40.335Z,10.03
2019-06-26T12:36:42.126Z,9.27
2019-06-26T12:38:43.792Z,11.00
2019-06-26T12:40:45.462Z,9.53
2019-06-26T12:42:47.137Z,9.50
2019-06-26T12:44:49.116Z,9.17
2019-06-26T12:46:50.788Z,9.60
2019-06-26T12:48:52.465Z,10.30
2019-06-26T12:50:54.146Z,10.00
2019-06-26T12:52:55.833Z,9.37
2019-06-26T12:54:57.510Z,9.50
2019-06-26T12:56:59.219Z,8.47
2019-06-26T12:59:00.949Z,8.90
2019-06-26T13:01:02.734Z,7.90
2019-06-26T13:03:04.426Z,9.00
2019-06-26T13:05:06.111Z,9.20
2019-06-26T13:07:07.789Z,10.87
2019-06-26T13:09:09.465Z,7.17
2019-06-26T13:11:11.136Z,6.70
2019-06-26T13:13:12.825Z,7.47
2019-06-26T13:15:14.490Z,9.23
2019-06-26T13:17:16.172Z,7.13
2019-06-26T13:19:17.976Z,7.40
2019-06-26T13:21:19.716Z,6.43
2019-06-26T13:23:21.393Z,6.60
2019-06-26T13:25:23.074Z,6.20
2019-06-26T13:27:25.036Z,5.90
2019-06-26T13:29:26.970Z,6.70
2019-06-26T13:31:28.645Z,5.63
2019-06-26T13:33:30.330Z,6.77
2019-06-26T13:35:31.996Z,6.10
2019-06-26T13:37:33.681Z,5.83
2019-06-26T13:39:35.353Z,6.27
2019-06-26T13:41:37.020Z,5.77
2019-06-26T13:43:38.966Z,5.67
2019-06-26T13:45:40.929Z,6.80
2019-06-26T13:47:42.660Z,6.00
2019-06-26T13:49:44.661Z,6.00
2019-06-26T13:51:46.393Z,5.47
2019-06-26T13:53:48.168Z,6.87
2019-06-26T13:55:49.850Z,6.30
2019-06-26T13:57:51.896Z,6.20
2019-06-26T13:59:53.637Z,6.03
2019-06-26T14:01:55.312Z,6.30
2019-06-26T14:03:57.009Z,5.87
2019-06-26T14:05:58.796Z,5.70
2019-06-26T14:08:00.487Z,7.33
2019-06-26T14:10:02.222Z,6.63
2019-06-26T14:12:03.889Z,5.83
2019-06-26T14:14:05.626Z,6.07
2019-06-26T14:16:07.552Z,7.17
2019-06-26T14:18:09.234Z,6.50
2019-06-26T14:20:10.906Z,6.30
2019-06-26T14:22:13.194Z,6.37
2019-06-26T14:24:15.173Z,6.60
2019-06-26T14:26:16.841Z,7.77
2019-06-26T14:28:19.847Z,6.80
2019-06-26T14:30:21.973Z,6.50
2019-06-26T14:32:23.633Z,7.10
2019-06-26T14:34:27.879Z,7.33
2019-06-26T14:36:28.997Z,6.80
2019-06-26T14:38:30.666Z,7.90
2019-06-26T14:40:32.344Z,8.20
2019-06-26T14:42:34.014Z,10.47
2019-06-26T14:44:35.688Z,8.93
2019-06-26T14:46:37.628Z,10.00
2019-06-26T14:48:39.620Z,8.50
2019-06-26T14:50:41.314Z,9.43
2019-06-26T14:52:45.852Z,9.20
2019-06-26T14:54:46.558Z,10.53
2019-06-26T14:56:48.229Z,9.20
2019-06-26T14:58:49.908Z,8.47
2019-06-26T15:00:51.857Z,10.27
2019-06-26T15:02:53.550Z,10.47
2019-06-26T15:04:55.301Z,9.93
2019-06-26T15:06:56.977Z,10.97
2019-06-26T15:08:59.006Z,10.47
2019-06-26T15:11:00.657Z,10.07
2019-06-26T15:13:02.580Z,9.83
2019-06-26T15:15:04.475Z,9.70
2019-06-26T15:17:06.334Z,9.50
2019-06-26T15:19:08.264Z,9.33
2019-06-26T15:21:09.934Z,9.20
2019-06-26T15:23:11.599Z,9.00
2019-06-26T15:25:14.586Z,8.90
2019-06-26T15:27:16.253Z,9.10
2019-06-26T15:29:17.937Z,7.20
2019-06-26T15:31:19.840Z,8.00
2019-06-26T15:33:21.531Z,9.10
2019-06-26T15:35:23.205Z,7.40
2019-06-26T15:37:25.192Z,8.00
2019-06-26T15:39:26.884Z,7.73
2019-06-26T15:41:28.534Z,7.03
2019-06-26T15:43:30.444Z,7.70
2019-06-26T15:45:32.434Z,7.87
2019-06-26T15:47:34.290Z,7.93
2019-06-26T15:49:36.507Z,6.97
2019-06-26T15:51:38.174Z,7.50
2019-06-26T15:53:40.086Z,6.80
2019-06-26T15:55:41.765Z,7.63
2019-06-26T15:57:43.433Z,7.30
2019-06-26T15:59:45.125Z,7.70
2019-06-26T16:01:46.803Z,6.73
2019-06-26T16:03:48.703Z,6.60
2019-06-26T16:05:50.382Z,6.40
2019-06-26T16:07:52.050Z,6.93
2019-06-26T16:09:53.725Z,6.47
2019-06-26T16:11:58.759Z,7.20
2019-06-26T16:13:59.184Z,7.60
2019-06-26T16:16:00.850Z,6.70
2019-06-26T16:18:08.225Z,8.10
2019-06-26T16:20:09.894Z,6.90
2019-06-26T16:22:11.908Z,7.50
2019-06-26T16:24:13.862Z,6.50
2019-06-26T16:26:23.800Z,6.47
2019-06-26T16:28:25.734Z,6.90
2019-06-26T16:30:27.681Z,6.97
2019-06-26T16:32:29.346Z,6.67
2019-06-26T16:34:31.024Z,6.60
2019-06-26T16:36:32.933Z,5.60
2019-06-26T16:38:34.924Z,8.03
2019-06-26T16:40:36.946Z,6.43
2019-06-26T16:42:38.623Z,6.90
2019-06-26T16:44:40.326Z,7.60
2019-06-26T16:46:59.202Z,7.37
2019-06-26T16:49:00.278Z,7.30
2019-06-26T16:51:02.054Z,6.90
2019-06-26T16:53:03.946Z,6.80
2019-06-26T16:55:05.630Z,6.67
2019-06-26T16:57:07.302Z,6.37
2019-06-26T16:59:10.278Z,6.60
2019-06-26T17:01:12.257Z,6.00
2019-06-26T17:03:13.957Z,5.53
2019-06-26T17:05:15.713Z,5.57
2019-06-26T17:07:17.411Z,5.80
2019-06-26T17:09:19.392Z,5.43
2019-06-26T17:11:21.425Z,5.60
2019-06-26T17:13:23.113Z,5.10
2019-06-26T17:15:24.809Z,4.30
2019-06-26T17:17:26.627Z,5.20
2019-06-26T17:19:28.281Z,4.53
2019-06-26T17:21:29.960Z,5.03
2019-06-26T17:23:31.958Z,4.10
2019-06-26T17:25:33.629Z,4.30
2019-06-26T17:27:35.473Z,4.90
2019-06-26T17:29:37.161Z,5.13
2019-06-26T17:31:38.958Z,5.03
2019-06-26T17:33:40.742Z,4.97
2019-06-26T17:35:42.674Z,4.63
2019-06-26T17:37:44.357Z,5.00
2019-06-26T17:39:46.041Z,4.17
2019-06-26T17:41:47.706Z,3.87
2019-06-26T17:43:49.709Z,4.57
2019-06-26T17:45:51.517Z,3.70
2019-06-26T17:47:53.202Z,4.10
2019-06-26T17:49:54.965Z,4.40
2019-06-26T17:51:56.628Z,4.73
2019-06-26T17:53:58.305Z,4.30
2019-06-26T17:56:00.330Z,5.20
2019-06-26T17:58:02.697Z,5.00
2019-06-26T18:00:04.818Z,4.60
2019-06-26T18:02:06.838Z,4.73
2019-06-26T18:04:08.500Z,3.93
2019-06-26T18:06:10.185Z,4.10
2019-06-26T18:08:11.885Z,4.20
2019-06-26T18:10:13.843Z,4.83
2019-06-26T18:12:15.513Z,4.70
2019-06-26T18:14:17.177Z,4.33
2019-06-26T18:16:18.857Z,4.50
2019-06-26T18:18:20.545Z,4.73
2019-06-26T18:20:22.252Z,5.23
2019-06-26T18:22:23.957Z,4.80
2019-06-26T18:24:26.035Z,4.87
2019-06-26T18:26:27.837Z,4.90
2019-06-26T18:28:29.534Z,4.80
2019-06-26T18:30:31.269Z,5.07
2019-06-26T18:32:32.953Z,6.27
2019-06-26T18:34:34.616Z,5.60
2019-06-26T18:36:36.290Z,5.00
2019-06-26T18:38:37.981Z,6.30
2019-06-26T18:40:39.707Z,7.30
2019-06-26T18:42:41.373Z,9.73
2019-06-26T18:44:43.047Z,8.40
2019-06-26T18:46:44.813Z,8.43
2019-06-26T18:48:46.478Z,6.77
2019-06-26T18:50:48.256Z,7.00
2019-06-26T18:52:50.070Z,6.37
2019-06-26T18:54:51.751Z,6.67
2019-06-26T18:56:53.525Z,7.43
2019-06-26T18:58:55.194Z,7.00
2019-06-26T19:00:56.878Z,7.33
2019-06-26T19:02:58.560Z,7.50
2019-06-26T19:05:00.222Z,7.80
2019-06-26T19:07:02.245Z,10.53
2019-06-26T19:09:05.213Z,15.50
2019-06-26T19:11:06.901Z,13.73
2019-06-26T19:13:08.550Z,8.90
2019-06-26T19:15:10.251Z,9.43
2019-06-26T19:17:11.928Z,9.80
2019-06-26T19:19:13.587Z,9.57
2019-06-26T19:21:15.266Z,9.00
2019-06-26T19:23:17.200Z,8.80
2019-06-26T19:25:18.870Z,9.80
2019-06-26T19:27:20.581Z,9.10
2019-06-26T19:29:22.251Z,8.87
2019-06-26T19:31:23.925Z,8.40
2019-06-26T19:33:25.871Z,8.30
2019-06-26T19:35:27.540Z,8.50
2019-06-26T19:37:29.214Z,9.07
2019-06-26T19:39:30.881Z,8.67
2019-06-26T19:41:32.591Z,8.00
2019-06-26T19:43:34.346Z,8.97
2019-06-26T19:45:36.014Z,9.00
2019-06-26T19:47:37.753Z,8.60
2019-06-26T19:49:39.424Z,8.50
2019-06-26T19:51:41.365Z,8.43
2019-06-26T19:53:43.291Z,8.63
2019-06-26T19:55:45.253Z,9.00
2019-06-26T19:57:46.938Z,8.53
2019-06-26T19:59:48.604Z,7.77
2019-06-26T20:01:51.419Z,7.53
2019-06-26T20:03:53.345Z,7.17
2019-06-26T20:05:55.012Z,7.17
2019-06-26T20:07:56.693Z,7.10
2019-06-26T20:10:01.748Z,7.17
2019-06-26T20:12:02.578Z,7.10
2019-06-26T20:14:04.244Z,7.20
2019-06-26T20:16:05.913Z,6.30
2019-06-26T20:18:07.599Z,5.80
2019-06-26T20:20:09.261Z,5.62
2019-06-26T20:22:10.940Z,5.73
2019-06-26T20:24:13.101Z,5.27
2019-06-26T20:26:14.760Z,6.40
2019-06-26T20:28:16.444Z,5.17
2019-06-26T20:30:22.105Z,5.17
2019-06-26T20:32:23.768Z,5.83
2019-06-26T20:34:25.447Z,5.03
2019-06-26T20:36:27.107Z,4.67
2019-06-26T20:38:28.789Z,4.57
2019-06-26T20:40:30.731Z,4.10
2019-06-26T20:42:32.402Z,4.47
2019-06-26T20:44:34.100Z,3.60
2019-06-26T20:46:35.857Z,3.93
2019-06-26T20:48:37.533Z,4.10
2019-06-26T20:50:39.501Z,4.20
2019-06-26T20:52:41.195Z,3.80
2019-06-26T20:54:56.763Z,4.07
2019-06-26T20:56:46.722Z,4.20
2019-06-26T20:58:48.768Z,3.80
2019-06-26T21:00:50.819Z,4.30
2019-06-26T21:02:54.283Z,4.23
2019-06-26T21:04:56.283Z,3.70
2019-06-26T21:06:58.085Z,3.90
2019-06-26T21:08:59.787Z,4.50
2019-06-26T21:11:01.449Z,4.07
2019-06-26T21:13:03.141Z,4.50
2019-06-26T21:15:05.014Z,4.43
2019-06-26T21:17:06.954Z,4.50
2019-06-26T21:19:08.651Z,5.00
2019-06-26T21:21:10.300Z,5.03
2019-06-26T21:23:18.365Z,5.27
2019-06-26T21:25:18.867Z,4.70
2019-06-26T21:27:19.184Z,4.30
2019-06-26T21:29:20.854Z,5.17
2019-06-26T21:31:22.508Z,5.30
2019-06-26T21:33:24.310Z,5.00
2019-06-26T21:35:26.067Z,5.97
2019-06-26T21:37:27.745Z,5.60
2019-06-26T21:39:29.681Z,5.57
2019-06-26T21:41:31.371Z,4.80
2019-06-26T21:43:33.041Z,5.00
2019-06-26T21:45:34.701Z,4.90
2019-06-26T21:47:36.381Z,5.57
2019-06-26T21:49:38.231Z,5.07
2019-06-26T21:51:40.342Z,5.03
2019-06-26T21:53:42.081Z,5.57
2019-06-26T21:55:43.834Z,4.87
2019-06-26T21:57:45.507Z,5.37
2019-06-26T21:59:47.440Z,5.80
2019-06-26T22:01:49.109Z,5.90
2019-06-26T22:03:50.792Z,5.70
2019-06-26T22:05:52.802Z,5.57
2019-06-26T22:07:54.475Z,5.10
2019-06-26T22:09:56.410Z,5.67
2019-06-26T22:12:00.758Z,5.57
2019-06-26T22:14:01.853Z,5.80
2019-06-26T22:16:03.822Z,6.20
2019-06-26T22:18:05.777Z,6.20
2019-06-26T22:20:11.279Z,6.03
2019-06-26T22:22:11.010Z,5.63
2019-06-26T22:24:12.692Z,5.10
2019-06-26T22:26:14.574Z,5.83
2019-06-26T22:28:16.714Z,6.10
2019-06-26T22:30:18.687Z,5.97
2019-06-26T22:32:20.458Z,5.57
2019-06-26T22:34:22.137Z,6.43
2019-06-26T22:36:23.806Z,5.60
2019-06-26T22:38:25.482Z,6.00
2019-06-26T22:40:27.158Z,6.50
2019-06-26T22:42:29.091Z,5.93
2019-06-26T22:44:30.769Z,5.77
2019-06-26T22:46:32.434Z,6.03
2019-06-26T22:48:34.105Z,6.20
2019-06-26T22:50:35.771Z,6.40
2019-06-26T22:52:37.775Z,6.03
2019-06-26T22:54:39.529Z,5.93
2019-06-26T22:56:41.197Z,6.37
2019-06-26T22:58:42.973Z,6.73
2019-06-26T23:00:47.750Z,7.37
2019-06-26T23:02:48.558Z,6.17
2019-06-26T23:04:50.234Z,7.23
2019-06-26T23:06:51.930Z,6.87
2019-06-26T23:08:54.867Z,6.30
2019-06-26T23:10:56.530Z,7.60
2019-06-26T23:12:58.203Z,8.47
2019-06-26T23:14:59.886Z,6.70
2019-06-26T23:17:01.560Z,6.90
2019-06-26T23:19:03.245Z,7.10
2019-06-26T23:21:04.938Z,7.17
2019-06-26T23:23:06.614Z,7.37
2019-06-26T23:25:08.372Z,7.93
2019-06-26T23:27:10.045Z,7.80
2019-06-26T23:29:11.722Z,7.07
2019-06-26T23:31:13.384Z,6.83
2019-06-26T23:33:15.078Z,7.07
2019-06-26T23:35:16.766Z,5.57
2019-06-26T23:37:18.422Z,5.77
2019-06-26T23:39:20.216Z,5.30
2019-06-26T23:41:21.891Z,5.50
2019-06-26T23:43:23.797Z,5.90
2019-06-26T23:45:25.476Z,5.67
2019-06-26T23:47:27.136Z,5.13
2019-06-26T23:49:28.818Z,5.10
2019-06-26T23:51:30.498Z,4.97
2019-06-26T23:53:32.174Z,4.60
2019-06-26T23:55:34.189Z,4.53
2019-06-26T23:57:35.858Z,4.53
2019-06-26T23:59:37.537Z,5.10
